AirNav   Everest Fuels
 
 685 users online  

2E7 Mc Lean/Gray County Airport
Mc Lean, Texas, USA

GOING TO MC LEAN?


FAA INFORMATION EFFECTIVE 05 DECEMBER 2019

Location

FAA Identifier: 2E7
Lat/Long: 35-14-48.7000N 100-32-48.5000W
35-14.811667N 100-32.808333W
35.2468611,-100.5468056
(estimated)
Elevation: 2835 ft. / 864 m (estimated)
Variation: 08E (1985)
From city: 3 miles E of MC LEAN, TX
Time zone: UTC -6 (UTC -5 during Daylight Saving Time)
Zip code: 79057

Airport Operations

Airport use: Open to the public
Activation date: 09/1955
Control tower: no
ARTCC: ALBUQUERQUE CENTER
FSS: FORT WORTH FLIGHT SERVICE STATION
NOTAMs facility: FTW (NOTAM-D service available)
Attendance: UNATNDD
Wind indicator: lighted
Segmented circle: yes
Lights: SS-SR
Beacon: white-green (lighted land airport)
ROTG BCN OTS INDEFLY. Operates sunset to sunrise.

Airport Communications

CTAF: 122.9

Airport Services

Parking: tiedowns
Airframe service: NONE
Powerplant service: NONE
Bottled oxygen: NONE
Bulk oxygen: NONE

Runway Information

Runway 17/35

Dimensions: 3225 x 50 ft. / 983 x 15 m
Surface: asphalt, in fair condition
Weight bearing capacity: 
Single wheel: 12.5
Runway edge lights: non-standard
NSTD FRUIT JAR LGTS ON NON-FRANGIBLE METAL CONDUIT.
RUNWAY 17  RUNWAY 35
Latitude: 35-15.078170N35-14.546432N
Longitude: 100-32.808078W100-32.807187W
Elevation: 2822.0 ft.2823.0 ft.
Traffic pattern: leftleft
Runway heading: 172 magnetic, 180 true352 magnetic, 360 true
Markings: basic, in fair conditionbasic, in fair condition
Obstructions: 9 ft. tree, 377 ft. from runway, 26 ft. right of centerline, 19:1 slope to clear10 ft. road, 464 ft. from runway, 26:1 slope to clear
+3 FT BERM FM THLD TO 200 FT FM THLD; 112 FT RIGHT.

Airport Ownership and Management from official FAA records

Ownership: Publicly-owned
Owner: GRAY COUNTY
205 N. RUSSELL
PAMPA, TX 79065
Phone 806-669-8007
Manager: JEFF HALEY
PO BOX 42
MCLEAN, TX 79057
Phone (806) 662-7331
COUNTY COMMISSIONER.

Airport Operational Statistics

Aircraft operations: avg 42/month *
100% transient general aviation
* for 12-month period ending 14 March 2018

Additional Remarks

+40 FT TREES WEST OF RY CNTRLN.
WILDLIFE ON AND IN VICINITY OF AIRPORT.
NO LINE OF SIGHT BTN RY ENDS.
FOR CD CTC ALBUQUERQUE ARTCC AT 505-856-4861.

Instrument Procedures

There are no published instrument procedures at 2E7.

Some nearby airports with instrument procedures:

T59 - Wheeler Municipal Airport (21 nm NE)
KPPA - Perry Lefors Field Airport (31 nm NW)
KHHF - Hemphill County Airport (40 nm N)
T45 - Panhandle-Carson County Airport (41 nm W)
O35 - Hollis Municipal Airport (45 nm SE)
 
Loc | Ops | Rwys | IFR | FBO | Links
Com | Nav | Svcs | Stats | Notes

AirBoss

 
Area around 2E7 (Mc Lean/Gray County Airport)
 
Road maps at: MapQuest Bing Google
 
Aerial photo
No photo
 
Sectional chart

 
Airport distance calculator
Flying to Mc Lean/Gray County Airport? Find the distance to fly.

From to 2E7

Sunrise and sunset
Times for 14-Dec-2019
 Local
(UTC-6)
 Zulu
(UTC)
Morning civil twilight07:1613:16
Sunrise07:4413:44
Sunset17:3023:30
Evening civil twilight17:5823:58

Current date and time
Zulu (UTC)  15-Dec-2019 00:56:19
Local (UTC-6)  14-Dec-2019 18:56:19
 
METAR
KPPA 
26nm NW 
150035Z AUTO 13015KT 10SM CLR 07/00 A2973 RMK AO2 T00661002
KHHF 
40nm N 
150035Z AUTO 12011KT 10SM CLR 05/00 A2977 RMK AO2 T00520001
KBPC 
45nm NW 
150035Z AUTO 12007KT 10SM CLR 06/M01 A2974 RMK AO2
KBGD 
50nm NW 
142351Z AUTO 13009KT 10SM FEW080 11/M02 A2971 RMK AO2 SLP054 T01061017 10139 20089 56005
TAF
NOTAMs
Click for the latest NOTAMs
NOTAMs are issued by the DoD/FAA and will open in a separate window not controlled by AirNav.

 

 
 

Would you like to see your business listed on this page?

 If your business provides an interesting product or service to pilots, flight crews, aircraft, or users of the Mc Lean/Gray County Airport, you should consider listing it here.  To start the listing process, click on the button below
 
Add a business
 

Other Pages about Mc Lean/Gray County Airport

Update a link
 
Copyright © AirNav, LLC. All rights reserved. Privacy Policy  Contact